Time;durP1;ratioP1;P1;durP2;ratioP2;P2;SDS_P1;SDS_P2;PMS_P1;PMS_P2;Temp;Humidity;BMP_temperature;BMP_pressure;BME280_temperature;BME280_humidity;BME280_pressure;Samples;Min_cycle;Max_cycle;Signal;HPM_P1;HPM_P2
2021/07/29 00:01:30;;;;;;;6.83;1.73;;;15.60;99.90;;;;;;4360447;33;20476;-63
2021/07/29 00:03:57;;;;;;;6.20;2.20;;;15.60;99.90;;;;;;4360794;33;20163;-64
2021/07/29 00:06:25;;;;;;;8.87;2.53;;;15.60;99.90;;;;;;4360663;33;20160;-63
2021/07/29 00:08:52;;;;;;;6.87;2.77;;;15.70;99.90;;;;;;4360607;33;20172;-63
2021/07/29 00:11:19;;;;;;;8.77;2.50;;;15.70;99.90;;;;;;4360576;33;20145;-63
2021/07/29 00:13:46;;;;;;;7.40;2.50;;;15.60;99.90;;;;;;4360698;33;20164;-63
2021/07/29 00:16:13;;;;;;;6.43;2.80;;;15.60;99.90;;;;;;4360566;33;20163;-63
2021/07/29 00:21:26;;;;;;;8.37;2.67;;;15.50;99.90;;;;;;4360757;32;20182;-63
2021/07/29 00:23:53;;;;;;;6.87;2.40;;;15.60;99.90;;;;;;4360612;33;20168;-63
2021/07/29 00:26:19;;;;;;;7.13;2.40;;;15.60;99.90;;;;;;4360524;33;20171;-63
2021/07/29 00:28:46;;;;;;;8.57;2.20;;;15.70;99.90;;;;;;4360296;33;20154;-62
2021/07/29 00:31:13;;;;;;;6.00;2.50;;;15.80;99.90;;;;;;4364414;32;20186;-62
2021/07/29 00:33:40;;;;;;;6.23;2.47;;;15.90;99.90;;;;;;4366698;32;20167;-62
2021/07/29 00:36:07;;;;;;;12.77;2.83;;;15.90;99.90;;;;;;4359935;33;20466;-62
2021/07/29 00:38:35;;;;;;;8.27;2.53;;;16.00;99.90;;;;;;4365631;32;20160;-61
2021/07/29 00:41:02;;;;;;;7.97;2.40;;;15.90;99.90;;;;;;4365779;32;20450;-63
2021/07/29 00:43:29;;;;;;;5.23;2.30;;;16.00;99.90;;;;;;4365802;32;20162;-61
2021/07/29 00:45:56;;;;;;;11.23;2.80;;;16.00;99.90;;;;;;4365499;32;20145;-62
2021/07/29 00:48:24;;;;;;;8.23;2.90;;;15.90;99.90;;;;;;4365240;32;20165;-62
2021/07/29 00:50:51;;;;;;;11.43;3.00;;;15.90;99.90;;;;;;4365931;32;20156;-62
2021/07/29 00:53:18;;;;;;;10.13;2.60;;;15.80;99.90;;;;;;4365159;32;20179;-63
2021/07/29 00:55:47;;;;;;;9.07;2.93;;;15.80;99.90;;;;;;4364887;32;20153;-62
2021/07/29 00:58:13;;;;;;;16.77;3.93;;;15.80;99.90;;;;;;4365195;33;20148;-63
2021/07/29 01:00:40;;;;;;;8.70;3.00;;;15.80;99.90;;;;;;4365476;32;20659;-64
2021/07/29 01:03:07;;;;;;;11.10;4.50;;;15.80;99.90;;;;;;4367009;32;20160;-63
2021/07/29 01:05:38;;;;;;;9.17;3.20;;;15.80;99.90;;;;;;4364810;32;20211;-64
2021/07/29 01:08:06;;;;;;;7.87;3.10;;;15.90;99.90;;;;;;4365375;33;20553;-63
2021/07/29 01:10:36;;;;;;;9.87;3.63;;;15.70;99.90;;;;;;4365226;32;20141;-61
2021/07/29 01:13:04;;;;;;;6.97;2.80;;;15.60;99.90;;;;;;4366415;32;20183;-64
2021/07/29 01:15:31;;;;;;;13.03;2.63;;;15.50;99.90;;;;;;4365214;33;20169;-62
2021/07/29 01:18:01;;;;;;;13.43;3.40;;;15.50;99.90;;;;;;4364893;32;20224;-63
2021/07/29 01:20:30;;;;;;;9.63;3.00;;;15.40;99.90;;;;;;4364722;32;20224;-64
2021/07/29 01:22:56;;;;;;;6.70;2.87;;;15.30;99.90;;;;;;4364981;33;20545;-63
2021/07/29 01:25:23;;;;;;;9.40;3.93;;;15.20;99.90;;;;;;4365873;32;20241;-63
2021/07/29 01:27:50;;;;;;;8.30;2.77;;;15.20;99.90;;;;;;4365148;32;20140;-63
2021/07/29 01:30:17;;;;;;;13.33;3.23;;;15.10;99.90;;;;;;4365113;33;20145;-62
2021/07/29 01:32:44;;;;;;;11.83;3.47;;;15.10;99.90;;;;;;4364975;33;20263;-64
2021/07/29 01:35:11;;;;;;;15.30;3.20;;;15.00;99.90;;;;;;4365179;32;20141;-64
2021/07/29 01:37:41;;;;;;;10.73;3.83;;;15.00;99.90;;;;;;4365030;33;20216;-63
2021/07/29 01:40:10;;;;;;;16.23;3.93;;;15.00;99.90;;;;;;4365561;32;20164;-62
2021/07/29 01:42:37;;;;;;;12.57;3.33;;;15.00;99.90;;;;;;4363539;32;20224;-63
2021/07/29 01:45:04;;;;;;;15.60;3.20;;;15.00;99.90;;;;;;4364251;32;20188;-64
2021/07/29 01:47:31;;;;;;;16.60;3.80;;;15.00;99.90;;;;;;4363224;32;20188;-63
2021/07/29 01:50:01;;;;;;;11.17;3.23;;;15.10;99.90;;;;;;4362532;32;20215;-63
2021/07/29 01:52:32;;;;;;;14.77;3.77;;;15.30;99.90;;;;;;4368402;32;20220;-64
2021/07/29 01:55:01;;;;;;;14.40;3.40;;;15.30;99.90;;;;;;4365585;32;20181;-64
2021/07/29 01:57:28;;;;;;;13.63;3.57;;;15.40;99.90;;;;;;4365033;32;20536;-63
2021/07/29 01:59:55;;;;;;;15.80;3.87;;;15.30;99.90;;;;;;4371436;32;20191;-62
2021/07/29 02:02:21;;;;;;;11.70;3.77;;;15.20;99.90;;;;;;4367944;32;20171;-63
2021/07/29 02:04:48;;;;;;;15.03;3.83;;;15.00;99.90;;;;;;4368786;32;20183;-63
2021/07/29 02:07:15;;;;;;;13.43;4.13;;;14.90;99.90;;;;;;4362312;33;20141;-63
2021/07/29 02:09:42;;;;;;;15.07;4.03;;;14.70;99.90;;;;;;4362348;33;20204;-63
2021/07/29 02:12:10;;;;;;;16.07;4.30;;;14.60;99.90;;;;;;4362297;33;20203;-62
2021/07/29 02:14:37;;;;;;;17.47;3.93;;;14.60;99.90;;;;;;4362258;32;20163;-63
2021/07/29 02:17:04;;;;;;;15.97;4.23;;;14.60;99.90;;;;;;4362632;32;20211;-63
2021/07/29 02:19:32;;;;;;;13.43;3.83;;;14.70;99.90;;;;;;4362120;33;20212;-64
2021/07/29 02:21:59;;;;;;;16.87;4.10;;;14.70;99.90;;;;;;4362903;32;20146;-63
2021/07/29 02:24:25;;;;;;;17.57;4.53;;;14.80;99.90;;;;;;4363341;32;20516;-63
2021/07/29 02:26:52;;;;;;;16.00;4.27;;;14.70;99.90;;;;;;4362395;32;20168;-64
2021/07/29 02:29:21;;;;;;;20.23;4.73;;;14.70;99.90;;;;;;4362579;32;20152;-63
2021/07/29 02:31:49;;;;;;;22.97;5.73;;;14.60;99.90;;;;;;4362575;32;20171;-63
2021/07/29 02:34:16;;;;;;;21.90;5.33;;;14.50;99.90;;;;;;4365322;32;20164;-63
2021/07/29 02:36:42;;;;;;;16.17;5.13;;;14.50;99.90;;;;;;4370292;32;20153;-63
2021/07/29 02:39:11;;;;;;;20.83;5.37;;;14.50;99.90;;;;;;4369359;32;20302;-65
2021/07/29 02:41:37;;;;;;;15.30;4.63;;;14.50;99.90;;;;;;4369663;32;20156;-65
2021/07/29 02:44:05;;;;;;;24.07;6.03;;;14.40;99.90;;;;;;4361890;33;20223;-63
2021/07/29 02:46:33;;;;;;;18.40;5.77;;;14.40;99.90;;;;;;4361546;33;20193;-64
2021/07/29 02:49:00;;;;;;;12.13;5.00;;;14.30;99.90;;;;;;4363079;32;20145;-63
2021/07/29 02:51:27;;;;;;;16.60;5.10;;;14.30;99.90;;;;;;4362311;32;20167;-64
2021/07/29 02:53:53;;;;;;;18.47;5.03;;;14.30;99.90;;;;;;4361385;32;20152;-65
2021/07/29 02:56:20;;;;;;;14.77;5.23;;;14.20;99.90;;;;;;4361532;32;20581;-65
2021/07/29 02:58:47;;;;;;;16.50;5.57;;;14.10;99.90;;;;;;4361440;33;20216;-64
2021/07/29 03:01:15;;;;;;;14.87;6.17;;;14.00;99.90;;;;;;4362470;32;20158;-65
2021/07/29 03:03:44;;;;;;;24.50;6.60;;;14.00;99.90;;;;;;4361950;32;20149;-64
2021/07/29 03:06:11;;;;;;;21.57;7.13;;;14.00;99.90;;;;;;4362818;32;20168;-65
2021/07/29 03:08:38;;;;;;;17.43;6.23;;;14.00;99.90;;;;;;4362905;32;20141;-64
2021/07/29 03:11:05;;;;;;;15.13;5.83;;;14.00;99.90;;;;;;4361496;32;20155;-63
2021/07/29 03:13:32;;;;;;;28.83;8.80;;;14.00;99.90;;;;;;4363100;32;20168;-63
2021/07/29 03:15:59;;;;;;;16.83;6.67;;;14.10;99.90;;;;;;4361416;33;20162;-64
2021/07/29 03:18:25;;;;;;;17.40;6.60;;;14.10;99.90;;;;;;4361827;32;20259;-63
2021/07/29 03:20:53;;;;;;;20.80;6.80;;;14.10;99.90;;;;;;4362375;32;20224;-64
2021/07/29 03:23:20;;;;;;;24.07;6.93;;;14.10;99.90;;;;;;4361214;33;20218;-64
2021/07/29 03:25:51;;;;;;;17.40;6.93;;;14.10;99.90;;;;;;4361240;33;20163;-63
2021/07/29 03:28:18;;;;;;;20.00;5.17;;;14.00;99.90;;;;;;4362359;32;20153;-65
2021/07/29 03:30:45;;;;;;;19.10;5.83;;;14.10;99.90;;;;;;4361360;32;20164;-63
2021/07/29 03:33:12;;;;;;;17.90;5.70;;;14.00;99.90;;;;;;4361117;33;20168;-63
2021/07/29 03:35:40;;;;;;;13.33;4.67;;;13.90;99.90;;;;;;4361925;32;20151;-64
2021/07/29 03:38:09;;;;;;;19.33;6.70;;;13.90;99.90;;;;;;4360825;33;20168;-64
2021/07/29 03:40:37;;;;;;;15.93;5.30;;;13.80;99.90;;;;;;4362249;32;20217;-64
2021/07/29 03:43:06;;;;;;;16.33;5.63;;;13.80;99.90;;;;;;4361017;33;20201;-63
2021/07/29 03:45:34;;;;;;;19.03;5.23;;;13.70;99.90;;;;;;4360943;33;20150;-63
2021/07/29 03:48:01;;;;;;;13.57;4.70;;;13.70;99.90;;;;;;4361384;32;20156;-64
2021/07/29 03:50:28;;;;;;;11.50;4.80;;;13.70;99.90;;;;;;4360824;33;20249;-63
2021/07/29 03:52:55;;;;;;;16.87;5.63;;;13.70;99.90;;;;;;4360858;33;20176;-64
2021/07/29 03:55:23;;;;;;;9.33;4.50;;;13.70;99.90;;;;;;4360822;33;20173;-64
2021/07/29 03:57:50;;;;;;;11.07;4.97;;;13.60;99.90;;;;;;4359346;32;20210;-64
2021/07/29 04:00:17;;;;;;;11.07;4.13;;;13.60;99.90;;;;;;4361306;32;20176;-63
2021/07/29 04:02:44;;;;;;;12.00;4.80;;;13.60;99.90;;;;;;4360825;33;20165;-65
2021/07/29 04:05:11;;;;;;;14.43;5.83;;;13.70;99.90;;;;;;4360031;33;20573;-65
2021/07/29 04:07:38;;;;;;;10.20;4.97;;;13.60;99.90;;;;;;4360702;33;20153;-63
2021/07/29 04:10:06;;;;;;;11.97;5.13;;;13.60;99.90;;;;;;4361864;32;20165;-63
2021/07/29 04:12:34;;;;;;;12.37;5.20;;;13.60;99.90;;;;;;4360702;33;20223;-63
2021/07/29 04:15:01;;;;;;;10.00;4.90;;;13.60;99.90;;;;;;4360553;33;20144;-63
2021/07/29 04:17:28;;;;;;;15.43;6.13;;;13.60;99.90;;;;;;4361985;32;20212;-63
2021/07/29 04:19:57;;;;;;;16.70;5.93;;;13.60;99.90;;;;;;4360502;32;20177;-63
2021/07/29 04:22:24;;;;;;;19.87;5.97;;;13.60;99.90;;;;;;4360648;33;20145;-64
2021/07/29 04:24:55;;;;;;;18.27;6.40;;;13.60;99.90;;;;;;4360606;33;20149;-64
2021/07/29 04:27:22;;;;;;;16.33;4.93;;;13.60;99.90;;;;;;4360576;33;20189;-63
2021/07/29 04:29:50;;;;;;;21.00;6.07;;;13.70;99.90;;;;;;4360953;33;20164;-63
2021/07/29 04:32:17;;;;;;;17.40;5.97;;;13.70;99.90;;;;;;4360427;33;20234;-63
2021/07/29 04:34:44;;;;;;;16.67;5.70;;;13.80;99.90;;;;;;4361565;33;20491;-62
2021/07/29 04:37:12;;;;;;;12.83;5.37;;;13.90;99.90;;;;;;4360487;33;20149;-63
2021/07/29 04:39:41;;;;;;;19.73;6.23;;;14.00;99.90;;;;;;4360454;33;20186;-63
2021/07/29 04:42:08;;;;;;;15.43;5.20;;;14.00;99.90;;;;;;4360360;33;20210;-62
2021/07/29 04:44:36;;;;;;;15.10;4.70;;;14.10;99.90;;;;;;4360287;33;20488;-64
2021/07/29 04:47:04;;;;;;;15.13;4.60;;;14.10;99.90;;;;;;4360794;33;20155;-63
2021/07/29 04:49:31;;;;;;;14.03;4.83;;;14.10;99.90;;;;;;4360396;33;20165;-64
2021/07/29 04:51:58;;;;;;;16.90;5.77;;;14.10;99.90;;;;;;4361377;33;20164;-64
2021/07/29 04:54:25;;;;;;;13.93;4.87;;;14.00;99.90;;;;;;4360422;33;20147;-64
2021/07/29 04:56:52;;;;;;;22.43;5.70;;;14.00;99.90;;;;;;4361951;33;20152;-63
2021/07/29 04:59:21;;;;;;;16.53;5.33;;;14.10;99.90;;;;;;4366851;32;20164;-65
2021/07/29 05:01:48;;;;;;;17.10;5.50;;;14.10;99.90;;;;;;4375089;32;20231;-64
2021/07/29 05:04:18;;;;;;;19.40;5.23;;;14.30;99.90;;;;;;4374994;32;20145;-63
2021/07/29 05:06:45;;;;;;;21.47;6.50;;;14.40;99.90;;;;;;4375242;32;20175;-63
2021/07/29 05:09:12;;;;;;;13.43;4.30;;;14.50;99.90;;;;;;4375246;32;20147;-63
2021/07/29 05:11:39;;;;;;;24.37;5.33;;;14.60;99.90;;;;;;4375216;32;20192;-63
2021/07/29 05:14:06;;;;;;;16.50;4.40;;;14.70;99.90;;;;;;4375079;32;20163;-63
2021/07/29 05:16:33;;;;;;;19.80;5.03;;;14.80;99.90;;;;;;4376158;32;20190;-64
2021/07/29 05:19:00;;;;;;;16.17;4.47;;;14.90;99.90;;;;;;4379634;32;20207;-63
2021/07/29 05:21:29;;;;;;;13.10;4.63;;;15.40;99.90;;;;;;4378379;32;20543;-63
2021/07/29 05:23:58;;;;;;;14.00;4.43;;;16.40;99.90;;;;;;4377950;32;20247;-63
2021/07/29 05:26:25;;;;;;;15.70;3.83;;;18.60;99.90;;;;;;4378002;32;20148;-64
2021/07/29 05:28:52;;;;;;;10.40;3.00;;;21.20;99.90;;;;;;4377727;32;20164;-63
2021/07/29 05:31:19;;;;;;;15.73;3.17;;;23.40;99.90;;;;;;4377340;32;20168;-62
2021/07/29 05:33:46;;;;;;;12.53;2.80;;;24.30;99.90;;;;;;4378291;32;20163;-63
2021/07/29 05:36:13;;;;;;;11.63;3.77;;;24.70;99.90;;;;;;4378222;32;20167;-62
2021/07/29 05:38:41;;;;;;;11.47;2.77;;;26.70;99.90;;;;;;4379105;32;20156;-63
2021/07/29 05:41:09;;;;;;;9.60;3.27;;;28.50;95.50;;;;;;4378550;32;20192;-64
2021/07/29 05:43:36;;;;;;;9.70;2.37;;;29.60;92.90;;;;;;4377372;32;20144;-64
2021/07/29 05:46:07;;;;;;;9.23;2.37;;;30.00;88.10;;;;;;4377322;32;20182;-63
2021/07/29 05:48:33;;;;;;;13.37;3.20;;;29.40;87.40;;;;;;4377811;32;20163;-63
2021/07/29 05:51:01;;;;;;;7.97;2.53;;;27.30;92.00;;;;;;4378230;32;20140;-64
2021/07/29 05:53:28;;;;;;;9.57;2.77;;;25.20;94.50;;;;;;4378573;32;20611;-65
2021/07/29 05:55:57;;;;;;;13.37;2.87;;;23.00;97.50;;;;;;4377377;32;20164;-63
2021/07/29 05:58:24;;;;;;;13.07;2.90;;;21.30;99.90;;;;;;4378231;32;20160;-62
2021/07/29 06:00:51;;;;;;;7.47;2.83;;;19.90;99.90;;;;;;4376853;32;20160;-62
2021/07/29 06:03:17;;;;;;;11.30;2.73;;;19.00;99.90;;;;;;4377335;32;20204;-63
2021/07/29 06:05:44;;;;;;;7.90;3.20;;;18.20;99.90;;;;;;4377420;32;20144;-63
2021/07/29 06:08:12;;;;;;;12.87;3.50;;;17.60;99.90;;;;;;4363623;32;20167;-63
2021/07/29 06:10:39;;;;;;;12.20;3.37;;;17.50;99.90;;;;;;4362289;33;20532;-62
2021/07/29 06:13:07;;;;;;;11.77;3.40;;;17.30;99.90;;;;;;4362248;33;20145;-63
2021/07/29 06:15:34;;;;;;;9.23;3.43;;;17.30;99.90;;;;;;4363003;32;20163;-62
2021/07/29 06:18:02;;;;;;;14.00;4.10;;;17.50;99.90;;;;;;4361896;33;20556;-63
2021/07/29 06:20:29;;;;;;;13.43;3.23;;;17.50;99.90;;;;;;4363630;32;20179;-61
2021/07/29 06:22:55;;;;;;;10.43;3.77;;;17.70;99.90;;;;;;4363510;32;20556;-62
2021/07/29 06:25:23;;;;;;;14.60;3.40;;;17.60;99.90;;;;;;4362597;32;20183;-61
2021/07/29 06:27:50;;;;;;;11.33;3.70;;;17.60;99.90;;;;;;4361600;32;20167;-62
2021/07/29 06:30:18;;;;;;;14.43;4.30;;;17.60;99.90;;;;;;4362585;32;20162;-62
2021/07/29 06:32:45;;;;;;;19.10;4.90;;;17.50;99.90;;;;;;4362652;32;20164;-61
2021/07/29 06:35:13;;;;;;;14.93;4.43;;;17.40;99.90;;;;;;4361752;33;20235;-63
2021/07/29 06:37:40;;;;;;;17.10;4.20;;;17.30;99.90;;;;;;4361299;33;20198;-63
2021/07/29 06:40:08;;;;;;;15.20;4.70;;;17.10;99.90;;;;;;4361769;33;20171;-63
2021/07/29 06:42:34;;;;;;;13.77;3.90;;;17.50;99.90;;;;;;4361851;33;20171;-62
2021/07/29 06:45:01;;;;;;;15.77;4.20;;;17.80;99.90;;;;;;4361722;33;20156;-62
2021/07/29 06:47:31;;;;;;;16.30;4.53;;;17.80;99.90;;;;;;4361735;33;20141;-62
2021/07/29 06:49:59;;;;;;;20.93;5.43;;;17.70;99.90;;;;;;4361616;33;20206;-63
2021/07/29 06:52:26;;;;;;;14.17;4.00;;;17.70;99.90;;;;;;4361532;33;20149;-62
2021/07/29 06:54:53;;;;;;;15.60;4.00;;;17.70;99.90;;;;;;4361187;33;20161;-63
2021/07/29 06:57:20;;;;;;;16.07;4.37;;;17.90;99.90;;;;;;4361663;33;20195;-62
2021/07/29 06:59:48;;;;;;;11.43;4.00;;;18.10;99.90;;;;;;4360982;33;20175;-60
2021/07/29 07:02:16;;;;;;;18.63;4.50;;;18.10;99.90;;;;;;4361535;33;20145;-62
2021/07/29 07:04:44;;;;;;;11.43;4.20;;;18.00;99.90;;;;;;4361611;33;20549;-63
2021/07/29 07:07:15;;;;;;;18.37;3.87;;;18.40;99.90;;;;;;4362768;32;20152;-61
2021/07/29 07:09:42;;;;;;;14.00;4.20;;;18.20;99.90;;;;;;4362604;32;20212;-62
2021/07/29 07:12:10;;;;;;;18.40;3.90;;;18.00;99.90;;;;;;4361251;33;20145;-62
2021/07/29 07:14:37;;;;;;;16.77;4.40;;;18.10;99.90;;;;;;4360813;33;20164;-62
2021/07/29 07:17:06;;;;;;;15.47;4.10;;;18.10;99.90;;;;;;4361477;32;20140;-62
2021/07/29 07:19:32;;;;;;;12.60;3.93;;;18.30;99.90;;;;;;4361343;32;20198;-64
2021/07/29 07:22:01;;;;;;;14.60;3.43;;;18.70;99.90;;;;;;4361461;32;20167;-62
2021/07/29 07:24:29;;;;;;;16.40;4.50;;;19.10;99.90;;;;;;4362592;32;20616;-63
2021/07/29 07:26:55;;;;;;;16.50;4.40;;;19.20;99.90;;;;;;4361289;33;20152;-61
2021/07/29 07:29:22;;;;;;;15.60;4.20;;;18.90;99.90;;;;;;4362593;32;20171;-63
2021/07/29 07:31:49;;;;;;;14.23;4.00;;;18.60;99.90;;;;;;4361114;33;20141;-62
2021/07/29 07:34:16;;;;;;;11.93;3.43;;;18.90;99.90;;;;;;4360954;33;20208;-63
2021/07/29 07:36:43;;;;;;;10.43;2.53;;;19.70;99.90;;;;;;4361276;32;20174;-63
2021/07/29 07:39:12;;;;;;;15.70;3.37;;;19.80;99.90;;;;;;4361690;32;20141;-61
2021/07/29 07:41:39;;;;;;;16.97;4.00;;;19.80;99.90;;;;;;4362309;32;20183;-63
2021/07/29 07:44:06;;;;;;;13.70;3.67;;;20.00;99.90;;;;;;4360934;33;20167;-62
2021/07/29 07:46:33;;;;;;;9.10;2.67;;;20.00;99.90;;;;;;4362703;32;20557;-62
2021/07/29 07:48:59;;;;;;;12.67;3.20;;;20.20;99.90;;;;;;4360841;33;20163;-63
2021/07/29 07:51:28;;;;;;;12.13;2.90;;;20.30;99.90;;;;;;4361044;33;20165;-63
2021/07/29 07:53:55;;;;;;;17.60;3.90;;;20.60;99.90;;;;;;4360545;33;20175;-63
2021/07/29 07:56:23;;;;;;;12.67;3.63;;;20.30;99.90;;;;;;4360831;33;20152;-62
2021/07/29 07:58:50;;;;;;;11.10;3.33;;;20.10;99.90;;;;;;4360854;33;20163;-64
2021/07/29 08:01:17;;;;;;;14.17;4.53;;;21.40;99.90;;;;;;4360441;32;20560;-61
2021/07/29 08:03:44;;;;;;;11.13;3.27;;;22.30;99.90;;;;;;4360645;33;20145;-63
2021/07/29 08:06:11;;;;;;;18.67;3.60;;;22.90;99.40;;;;;;4360798;33;20197;-63
2021/07/29 08:08:38;;;;;;;9.27;2.40;;;24.50;98.00;;;;;;4360720;33;20164;-64
2021/07/29 08:11:05;;;;;;;15.17;4.67;;;30.40;90.30;;;;;;4361671;32;20168;-63
2021/07/29 08:13:33;;;;;;;10.53;3.17;;;29.90;80.10;;;;;;4361000;32;20545;-64
2021/07/29 08:16:00;;;;;;;9.43;2.83;;;27.40;84.50;;;;;;4361410;32;20223;-65
2021/07/29 08:18:29;;;;;;;9.60;3.10;;;24.60;90.60;;;;;;4360697;33;20183;-65
2021/07/29 08:20:56;;;;;;;12.07;2.70;;;22.50;95.20;;;;;;4361258;32;20207;-63
2021/07/29 08:23:23;;;;;;;9.37;2.73;;;21.50;98.60;;;;;;4360624;33;20168;-64
2021/07/29 08:25:50;;;;;;;11.30;2.67;;;20.60;99.90;;;;;;4361132;32;20216;-61
2021/07/29 08:28:27;;;;;;;12.67;3.20;;;19.80;99.90;;;;;;4363840;32;20176;-64
2021/07/29 08:30:55;;;;;;;11.47;3.07;;;22.30;99.60;;;;;;4361497;32;20171;-63
2021/07/29 08:33:22;;;;;;;11.00;2.67;;;21.70;99.40;;;;;;4363495;32;20176;-63
2021/07/29 08:35:49;;;;;;;10.43;2.60;;;20.90;99.90;;;;;;4361353;32;20223;-62
2021/07/29 08:38:16;;;;;;;8.43;2.70;;;22.10;99.90;;;;;;4360960;32;20235;-63
2021/07/29 08:40:45;;;;;;;11.70;2.63;;;25.00;95.10;;;;;;4364684;32;20628;-62
2021/07/29 08:43:13;;;;;;;6.97;2.17;;;24.10;94.20;;;;;;4366114;32;20208;-63
2021/07/29 08:45:44;;;;;;;9.77;2.47;;;22.20;96.00;;;;;;4368588;32;20172;-64
2021/07/29 08:48:12;;;;;;;5.10;1.90;;;21.30;97.80;;;;;;4360572;32;20202;-62
2021/07/29 08:50:39;;;;;;;9.67;2.47;;;22.90;96.70;;;;;;4361951;32;20171;-63
2021/07/29 08:53:06;;;;;;;12.47;2.67;;;25.10;93.50;;;;;;4363336;33;20216;-63
2021/07/29 08:55:33;;;;;;;8.80;2.23;;;25.50;93.70;;;;;;4363532;32;20160;-64
2021/07/29 08:58:00;;;;;;;8.83;2.10;;;27.20;90.30;;;;;;4363194;33;20161;-63
2021/07/29 09:00:27;;;;;;;7.43;2.27;;;25.10;89.90;;;;;;4363947;32;20157;-63
2021/07/29 09:02:54;;;;;;;7.50;2.30;;;23.10;92.20;;;;;;4364717;32;20590;-63
2021/07/29 09:05:22;;;;;;;4.40;1.90;;;21.90;95.80;;;;;;4363360;33;20148;-64
2021/07/29 09:08:02;;;;;;;6.53;2.40;;;25.10;92.60;;;;;;4363306;33;20152;-63
2021/07/29 09:10:30;;;;;;;7.12;2.00;;;32.80;79.60;;;;;;4363127;32;20202;-63
2021/07/29 09:13:08;;;;;;;6.45;1.75;;;36.40;55.50;;;;;;4363669;32;20171;-62
2021/07/29 09:15:35;;;;;;;7.80;2.30;;;33.10;54.80;;;;;;4363492;32;20156;-63
2021/07/29 09:18:02;;;;;;;9.15;2.10;;;29.20;60.00;;;;;;4363135;33;20192;-65
2021/07/29 09:20:31;;;;;;;5.68;2.20;;;25.60;66.80;;;;;;4363055;33;20476;-65
2021/07/29 09:23:12;;;;;;;7.73;2.03;;;26.00;68.80;;;;;;4363004;33;20157;-65
2021/07/29 09:25:39;;;;;;;13.13;2.70;;;24.30;71.10;;;;;;4363027;33;20167;-63
2021/07/29 09:28:07;;;;;;;3.67;1.63;;;23.30;76.40;;;;;;4363035;33;20187;-62
2021/07/29 09:30:34;;;;;;;6.17;1.90;;;23.70;77.90;;;;;;4363171;32;20137;-63
2021/07/29 09:33:04;;;;;;;11.03;1.70;;;26.20;75.50;;;;;;4362860;33;20159;-62
2021/07/29 09:35:37;;;;;;;7.20;1.92;;;31.70;62.00;;;;;;4363236;32;20163;-64
2021/07/29 09:38:06;;;;;;;5.83;1.90;;;33.00;54.70;;;;;;4362722;33;20145;-63
2021/07/29 09:40:53;;;;;;;6.27;1.80;;;31.90;54.20;;;;;;4364463;32;20644;-63
2021/07/29 09:43:21;;;;;;;7.93;2.27;;;30.50;56.80;;;;;;4363576;32;20500;-64
2021/07/29 09:45:50;;;;;;;4.00;1.90;;;28.90;59.00;;;;;;4364376;32;20136;-63
2021/07/29 09:48:18;;;;;;;4.93;1.60;;;26.70;62.00;;;;;;4362575;33;20148;-63
2021/07/29 09:50:47;;;;;;;6.80;1.87;;;24.40;67.40;;;;;;4362613;33;20145;-63
2021/07/29 09:53:14;;;;;;;6.07;1.93;;;23.50;71.00;;;;;;4362834;32;20622;-63
2021/07/29 09:55:41;;;;;;;5.60;1.43;;;22.60;73.90;;;;;;4362446;33;20175;-63
2021/07/29 09:58:08;;;;;;;4.57;1.83;;;21.90;77.30;;;;;;4299382;33;2095567;-64
2021/07/29 10:00:38;;;;;;;6.17;2.03;;;21.80;78.30;;;;;;4361922;33;20184;-64
2021/07/29 10:03:07;;;;;;;7.07;2.53;;;21.30;79.50;;;;;;4361849;32;20205;-64
2021/07/29 10:05:42;;;;;;;9.07;2.63;;;21.10;81.60;;;;;;4363922;32;20157;-62
2021/07/29 10:08:18;;;;;;;7.07;2.27;;;20.90;83.60;;;;;;4362255;33;20212;-65
2021/07/29 10:10:45;;;;;;;5.13;2.07;;;20.90;83.40;;;;;;4362224;33;20171;-61
2021/07/29 10:13:12;;;;;;;11.17;2.90;;;21.00;85.90;;;;;;4362290;32;20152;-62
2021/07/29 10:15:44;;;;;;;8.03;2.63;;;20.90;86.10;;;;;;4362909;32;20179;-63
2021/07/29 10:18:11;;;;;;;7.17;2.10;;;20.70;87.50;;;;;;4361931;33;20164;-62
2021/07/29 10:20:40;;;;;;;7.37;2.50;;;20.30;87.40;;;;;;4363000;32;20573;-63
2021/07/29 10:23:51;;;;;;;4.77;1.87;;;20.30;90.10;;;;;;4362212;33;20157;-62
2021/07/29 10:26:17;;;;;;;4.60;1.90;;;20.20;90.00;;;;;;4363210;32;20204;-63
2021/07/29 10:28:44;;;;;;;7.07;2.00;;;20.20;90.20;;;;;;4362919;32;20591;-62
2021/07/29 10:31:17;;;;;;;5.27;1.90;;;19.90;88.50;;;;;;4363733;32;20224;-62
2021/07/29 10:33:46;;;;;;;7.70;1.97;;;19.70;90.10;;;;;;4362426;32;20204;-63
2021/07/29 10:36:46;;;;;;;8.87;2.63;;;20.10;90.80;;;;;;4361888;33;20208;-63
2021/07/29 10:39:15;;;;;;;7.03;1.90;;;20.40;90.40;;;;;;4301119;33;20213;-63
2021/07/29 10:41:46;;;;;;;6.87;1.60;;;20.60;90.50;;;;;;4301085;33;20180;-61
2021/07/29 10:44:56;;;;;;;6.30;1.97;;;20.70;90.00;;;;;;4302116;33;20693;-64
2021/07/29 10:47:43;;;;;;;6.93;2.20;;;20.90;90.10;;;;;;4300997;33;20201;-62
2021/07/29 10:50:23;;;;;;;8.77;2.17;;;21.50;88.60;;;;;;4300902;33;20173;-62
2021/07/29 10:52:51;;;;;;;7.47;1.80;;;21.30;86.30;;;;;;4302042;33;20181;-63
2021/07/29 10:55:21;;;;;;;5.20;2.07;;;20.80;86.70;;;;;;4300969;33;20176;-62
2021/07/29 10:58:10;;;;;;;11.37;2.40;;;20.50;86.80;;;;;;4302463;33;20292;-63
2021/07/29 11:00:37;;;;;;;4.30;1.87;;;20.30;89.00;;;;;;4301316;33;20586;-63
2021/07/29 11:03:10;;;;;;;6.87;1.70;;;20.50;90.20;;;;;;4301095;33;20194;-62
2021/07/29 11:05:43;;;;;;;7.40;1.97;;;20.50;90.00;;;;;;4301102;33;20162;-62
2021/07/29 11:08:11;;;;;;;8.13;1.87;;;20.70;90.20;;;;;;4295287;33;20557;-61
2021/07/29 11:10:40;;;;;;;6.23;1.50;;;20.60;90.50;;;;;;4300763;33;20174;-62
2021/07/29 11:13:07;;;;;;;5.53;2.00;;;20.70;87.90;;;;;;4294796;33;20601;-64
2021/07/29 11:15:39;;;;;;;8.20;2.00;;;20.60;89.50;;;;;;4314260;33;20187;-63
2021/07/29 11:18:15;;;;;;;6.13;1.90;;;20.60;90.20;;;;;;4355140;33;20153;-62
2021/07/29 11:20:42;;;;;;;5.37;1.90;;;20.50;90.10;;;;;;4360648;33;20208;-62
2021/07/29 11:23:13;;;;;;;4.53;1.80;;;20.70;90.40;;;;;;4361178;33;20149;-63
2021/07/29 11:28:35;;;;;;;6.23;2.30;;;20.90;91.10;;;;;;4344988;32;3369332;-63
2021/07/29 11:31:02;;;;;;;5.73;2.40;;;21.70;88.40;;;;;;4435632;32;20192;-63
2021/07/29 11:33:30;;;;;;;6.90;1.90;;;21.60;88.50;;;;;;4434069;32;20163;-66
2021/07/29 11:36:07;;;;;;;5.33;1.83;;;21.60;86.60;;;;;;4434727;32;20463;-66
2021/07/29 11:38:35;;;;;;;6.50;2.20;;;21.60;86.40;;;;;;4434479;32;20494;-64
2021/07/29 11:41:03;;;;;;;6.90;2.10;;;21.50;86.20;;;;;;4433855;32;20207;-64
2021/07/29 11:43:32;;;;;;;6.37;1.77;;;21.40;85.40;;;;;;4435543;32;20163;-64
2021/07/29 11:46:08;;;;;;;3.87;1.50;;;21.40;85.30;;;;;;4433979;32;20170;-64
2021/07/29 11:48:35;;;;;;;8.43;1.50;;;21.50;86.30;;;;;;4434245;32;20150;-63
2021/07/29 11:51:12;;;;;;;6.07;1.50;;;21.50;86.30;;;;;;4433775;32;20151;-66
2021/07/29 11:53:40;;;;;;;6.13;1.60;;;21.50;86.00;;;;;;4433640;32;20178;-62
2021/07/29 11:56:09;;;;;;;4.63;1.70;;;21.40;85.10;;;;;;4433526;32;20147;-64
2021/07/29 11:58:36;;;;;;;6.43;1.77;;;21.40;86.50;;;;;;4435258;32;20194;-64
2021/07/29 12:01:11;;;;;;;5.10;2.20;;;21.70;87.50;;;;;;4435225;32;20429;-63
2021/07/29 12:03:41;;;;;;;6.07;1.90;;;21.70;84.70;;;;;;4433746;32;20147;-64
2021/07/29 12:06:08;;;;;;;5.83;1.93;;;21.80;86.30;;;;;;4433520;32;20147;-64
2021/07/29 12:08:39;;;;;;;10.30;2.20;;;21.70;85.70;;;;;;4433393;32;20154;-66
2021/07/29 12:11:06;;;;;;;6.90;1.80;;;21.30;88.30;;;;;;4434438;32;20183;-65
2021/07/29 12:13:33;;;;;;;5.27;1.90;;;21.60;89.60;;;;;;4433627;32;20189;-65
2021/07/29 12:16:01;;;;;;;9.27;2.70;;;22.10;89.50;;;;;;4433691;32;20176;-64
2021/07/29 12:18:29;;;;;;;6.80;2.00;;;22.00;87.70;;;;;;4433566;32;20146;-61
2021/07/29 12:21:00;;;;;;;6.37;2.13;;;21.90;87.60;;;;;;4433952;32;20159;-62
2021/07/29 12:23:28;;;;;;;4.83;2.23;;;21.70;88.20;;;;;;4434464;32;20162;-63
2021/07/29 12:25:57;;;;;;;8.33;2.53;;;21.80;89.90;;;;;;4433383;32;20578;-63
2021/07/29 12:28:42;;;;;;;6.60;2.23;;;21.70;90.40;;;;;;4447632;32;20158;-63
2021/07/29 12:31:20;;;;;;;9.87;2.93;;;21.90;90.60;;;;;;4448439;32;20490;-63
2021/07/29 12:34:01;;;;;;;7.03;2.40;;;21.80;90.50;;;;;;4448636;32;20203;-64
2021/07/29 12:36:42;;;;;;;7.17;2.50;;;21.80;90.70;;;;;;4448637;32;20228;-64
2021/07/29 12:39:09;;;;;;;11.73;3.13;;;21.90;91.00;;;;;;4441548;32;20150;-64
2021/07/29 12:41:38;;;;;;;14.00;3.00;;;21.90;91.30;;;;;;4438131;32;20202;-65
2021/07/29 12:44:13;;;;;;;7.10;2.20;;;21.90;90.10;;;;;;4438167;32;20159;-65
2021/07/29 12:46:40;;;;;;;7.77;2.17;;;22.20;89.50;;;;;;4439068;32;20551;-66
2021/07/29 12:49:09;;;;;;;8.63;2.57;;;22.30;87.30;;;;;;4438371;32;20165;-64
2021/07/29 12:51:41;;;;;;;12.23;2.70;;;22.60;88.70;;;;;;4439891;32;20202;-65
2021/07/29 12:54:09;;;;;;;10.13;2.77;;;22.70;88.90;;;;;;4438093;32;20143;-63